Ashton, West Virginia
Current Conditions -  °F | °C
As of 9:15 PM on Friday 24 Oct 2014 (Local Time) from K3I2 Reporting Station
Clear Clear  
Wind Chill:   Ceiling: Unl
Heat Index:   Visibility: 10mi
Dew Point:   Wind: 0mph
Humidity: 81%   Direction: NA
Pressure: 30.06"   Gusts: NA
Location:  38.62°N, 82.16°W
Report Text: K3I2 250115Z AUTO 00000KT 10SM CLR 08/05 A3006 RMK AO2
Loading
Personal Weather Stations






























Interactive Weather Map New forecast layout! Learn more

10-Day Weather Forecast

Advertisements
Track Severe Weather on mobile